Time;durP1;ratioP1;P1;durP2;ratioP2;P2;SDS_P1;SDS_P2;PMS_P1;PMS_P2;Temp;Humidity;BMP_temperature;BMP_pressure;BME280_temperature;BME280_humidity;BME280_pressure;Samples;Min_cycle;Max_cycle;Signal;HPM_P1;HPM_P2
2022/12/17 13:08:06;;;;;;;;;;;1.20;72.60;;;;;;4958518;29;20035;-78
2022/12/17 13:10:33;;;;;;;13.45;7.93;;;1.20;72.50;;;;;;4964627;28;19914;-78
2022/12/17 13:13:21;;;;;;;15.70;7.68;;;1.20;72.10;;;;;;4994763;28;20176;-78
2022/12/17 13:15:52;;;;;;;19.27;9.32;;;1.20;72.10;;;;;;4957568;29;20439;-78
2022/12/17 13:18:33;;;;;;;21.73;9.98;;;1.20;72.60;;;;;;4949875;29;20036;-78
2022/12/17 13:21:04;;;;;;;19.52;10.98;;;1.20;72.70;;;;;;4957504;29;20042;-78
2022/12/17 13:23:33;;;;;;;14.48;9.00;;;1.30;72.20;;;;;;4968601;28;20394;-79
2022/12/17 13:26:17;;;;;;;22.65;10.13;;;1.40;71.80;;;;;;4963909;28;20063;-78
2022/12/17 13:28:56;;;;;;;17.17;9.68;;;1.40;71.50;;;;;;4962645;28;20150;-78
2022/12/17 13:31:38;;;;;;;11.55;8.02;;;1.50;71.90;;;;;;4976530;28;20068;-79
2022/12/17 13:34:26;;;;;;;19.77;8.70;;;1.50;71.50;;;;;;4969283;28;20042;-79
2022/12/17 13:37:05;;;;;;;10.75;6.28;;;1.50;71.10;;;;;;4958022;28;20534;-79
2022/12/17 13:39:38;;;;;;;11.02;7.68;;;1.50;71.20;;;;;;4961174;29;20015;-79
2022/12/17 13:42:04;;;;;;;13.18;8.07;;;1.50;71.50;;;;;;4943967;29;20035;-79
2022/12/17 13:44:43;;;;;;;17.60;7.88;;;1.60;71.60;;;;;;4943854;29;20023;-79
2022/12/17 13:47:30;;;;;;;21.80;9.90;;;1.60;71.40;;;;;;4943987;28;20027;-79
2022/12/17 13:49:59;;;;;;;17.98;8.90;;;1.60;71.40;;;;;;4943650;29;20024;-79
2022/12/17 13:52:27;;;;;;;17.40;10.18;;;1.70;71.50;;;;;;4961039;28;20133;-79
2022/12/17 13:54:53;;;;;;;23.35;10.43;;;1.70;71.60;;;;;;4960718;28;20048;-79
2022/12/17 13:57:22;;;;;;;17.33;8.80;;;1.80;71.60;;;;;;4959743;29;20037;-80
2022/12/17 13:59:56;;;;;;;19.10;9.93;;;1.80;71.10;;;;;;4972478;28;20541;-80
2022/12/17 14:02:33;;;;;;;15.02;8.48;;;1.70;70.80;;;;;;4959485;28;20092;-80
2022/12/17 14:05:02;;;;;;;22.35;10.38;;;1.60;71.20;;;;;;4960887;29;20024;-80
2022/12/17 14:07:29;;;;;;;11.00;7.25;;;1.60;71.60;;;;;;4960815;29;20502;-80
2022/12/17 14:09:56;;;;;;;21.50;12.27;;;1.70;71.60;;;;;;4960186;28;20099;-80
2022/12/17 14:12:25;;;;;;;17.27;7.93;;;1.70;71.30;;;;;;4969823;28;20030;-80
2022/12/17 14:14:57;;;;;;;12.70;7.20;;;1.70;71.20;;;;;;4943143;29;20442;-80
2022/12/17 14:17:28;;;;;;;11.15;7.25;;;1.70;70.80;;;;;;4978642;28;20026;-80
2022/12/17 14:20:34;;;;;;;7.57;5.63;;;1.70;70.60;;;;;;4979703;28;20038;-80
2022/12/17 14:23:15;;;;;;;21.02;9.43;;;1.60;70.20;;;;;;4971569;28;20046;-80
2022/12/17 14:25:43;;;;;;;17.48;9.25;;;1.50;70.20;;;;;;4943020;29;20419;-80
2022/12/17 14:28:30;;;;;;;10.55;5.88;;;1.60;70.60;;;;;;4960885;28;20391;-80
2022/12/17 14:31:19;;;;;;;14.30;9.90;;;1.60;70.20;;;;;;4979494;28;20058;-80
2022/12/17 14:33:46;;;;;;;21.60;8.93;;;1.60;70.00;;;;;;4962096;28;20506;-80
2022/12/17 14:36:14;;;;;;;17.23;8.57;;;1.50;70.20;;;;;;4957920;29;20035;-80
2022/12/17 14:38:53;;;;;;;14.85;10.18;;;1.50;70.70;;;;;;4960046;29;20031;-80
2022/12/17 14:44:04;;;;;;;15.32;8.93;;;1.30;71.10;;;;;;4959898;28;20046;-80
2022/12/17 14:46:32;;;;;;;15.07;9.18;;;1.50;71.00;;;;;;4959997;28;20030;-80
2022/12/17 14:49:00;;;;;;;20.80;11.07;;;1.50;70.70;;;;;;4958893;28;20023;-80
2022/12/17 14:51:34;;;;;;;26.88;12.68;;;1.60;70.80;;;;;;4959873;28;20023;-80
2022/12/17 14:54:21;;;;;;;14.48;6.97;;;1.70;70.80;;;;;;4959906;28;20038;-80
2022/12/17 14:56:48;;;;;;;11.50;6.45;;;1.80;70.50;;;;;;4959716;28;20538;-81
2022/12/17 14:59:36;;;;;;;20.02;9.77;;;1.70;70.30;;;;;;4960428;28;20510;-80
2022/12/17 15:02:09;;;;;;;17.70;9.93;;;1.70;69.90;;;;;;4959778;29;20102;-81
2022/12/17 15:04:36;;;;;;;26.58;11.93;;;1.70;70.30;;;;;;4959363;28;20404;-81
2022/12/17 15:07:04;;;;;;;21.85;6.93;;;1.60;70.50;;;;;;4959693;28;20059;-81
2022/12/17 15:09:35;;;;;;;18.48;9.70;;;1.60;70.40;;;;;;4959620;29;20098;-81
2022/12/17 15:12:00;;;;;;;;;;;1.70;70.70;;;;;;4991078;28;20026;-81
2022/12/17 15:14:26;;;;;;;47.70;23.10;;;1.60;70.60;;;;;;4987121;28;20000;-81
2022/12/17 15:16:51;;;;;;;18.35;10.23;;;1.70;70.70;;;;;;4959455;29;20030;-81
2022/12/17 15:19:17;;;;;;;16.90;10.27;;;1.60;70.40;;;;;;4957120;29;20027;-81
2022/12/17 15:21:43;;;;;;;16.83;9.10;;;1.60;70.70;;;;;;4961930;28;20415;-80
2022/12/17 15:24:16;;;;;;;25.80;13.35;;;1.50;70.80;;;;;;4956601;28;20030;-81
2022/12/17 15:26:41;;;;;;;10.40;7.22;;;1.50;71.00;;;;;;4978448;28;20027;-80
2022/12/17 15:29:07;;;;;;;19.58;11.45;;;1.50;71.20;;;;;;4978602;28;20018;-80
2022/12/17 15:31:33;;;;;;;12.93;9.52;;;1.50;71.50;;;;;;4960594;28;20051;-81
2022/12/17 15:33:59;;;;;;;13.73;7.40;;;1.40;71.60;;;;;;4978672;28;20397;-81
2022/12/17 15:36:24;;;;;;;25.85;12.45;;;1.40;71.80;;;;;;4956567;29;20042;-81
2022/12/17 15:38:50;;;;;;;16.60;9.55;;;1.40;71.90;;;;;;4959215;29;20126;-82
2022/12/17 15:44:00;;;;;;;23.20;12.40;;;1.30;72.20;;;;;;4959095;29;20550;-82
2022/12/17 15:46:26;;;;;;;15.80;9.13;;;1.30;72.20;;;;;;4958938;29;20039;-81
2022/12/17 15:48:51;;;;;;;19.90;11.30;;;1.20;72.20;;;;;;4958945;28;20023;-82
2022/12/17 15:51:19;;;;;;;18.75;10.50;;;1.20;72.40;;;;;;4957657;29;20023;-82
2022/12/17 15:53:46;;;;;;;15.52;9.20;;;1.20;72.40;;;;;;4958746;28;20031;-82
2022/12/17 15:56:21;;;;;;;28.25;12.73;;;1.20;72.40;;;;;;4958574;29;20027;-82
2022/12/17 15:58:47;;;;;;;16.05;7.97;;;1.10;72.70;;;;;;4963110;28;20518;-82
2022/12/17 16:01:13;;;;;;;24.65;11.95;;;1.10;72.70;;;;;;4941236;29;20035;-82
2022/12/17 16:03:39;;;;;;;20.40;10.50;;;1.10;72.90;;;;;;4959489;28;20027;-82
2022/12/17 16:06:04;;;;;;;19.98;9.90;;;1.10;72.90;;;;;;4945325;29;20046;-82
2022/12/17 16:08:30;;;;;;;16.65;10.68;;;1.10;73.10;;;;;;4941290;29;20027;-82
2022/12/17 16:10:57;;;;;;;13.40;8.77;;;1.10;73.00;;;;;;4972388;28;20057;-82
2022/12/17 16:13:22;;;;;;;16.00;9.20;;;1.10;72.80;;;;;;4968774;28;20039;-82
2022/12/17 16:15:59;;;;;;;22.40;11.00;;;1.20;73.00;;;;;;4958538;29;20035;-82
2022/12/17 16:18:25;;;;;;;24.88;12.73;;;1.20;72.80;;;;;;4958660;29;20467;-82
2022/12/17 16:20:50;;;;;;;24.52;12.77;;;1.20;72.70;;;;;;4958164;28;20063;-83
2022/12/17 16:23:16;;;;;;;15.18;10.13;;;1.30;72.70;;;;;;4947931;28;20066;-82
2022/12/17 16:25:42;;;;;;;16.85;7.90;;;1.30;72.60;;;;;;4960826;28;20039;-82
2022/12/17 16:28:07;;;;;;;20.90;9.35;;;1.40;72.80;;;;;;4958992;28;20023;-82
2022/12/17 16:30:33;;;;;;;12.80;7.38;;;1.40;72.90;;;;;;4977538;28;20057;-81
2022/12/17 16:32:59;;;;;;;20.92;12.02;;;1.40;72.70;;;;;;4955868;28;20059;-84
2022/12/17 16:35:27;;;;;;;38.17;17.65;;;1.40;72.40;;;;;;4940899;29;20038;-79
2022/12/17 16:37:53;;;;;;;36.65;18.88;;;1.30;72.30;;;;;;4941119;29;20027;-81
2022/12/17 16:40:19;;;;;;;56.05;23.90;;;1.20;72.60;;;;;;4969340;28;20041;-82
2022/12/17 16:42:45;;;;;;;43.53;16.40;;;1.20;72.80;;;;;;4989348;28;20030;-81
2022/12/17 16:45:11;;;;;;;29.50;15.90;;;1.20;73.10;;;;;;4964193;28;20031;-81
2022/12/17 16:47:36;;;;;;;32.58;16.70;;;1.10;73.10;;;;;;4959990;28;20851;-80
2022/12/17 16:50:02;;;;;;;27.85;12.27;;;1.10;73.10;;;;;;4962983;28;20054;-81
2022/12/17 16:52:28;;;;;;;17.15;10.27;;;1.10;73.30;;;;;;4956940;28;20035;-81
2022/12/17 16:54:54;;;;;;;22.80;12.95;;;1.10;72.90;;;;;;4948758;29;20094;-79
2022/12/17 16:57:19;;;;;;;37.53;16.48;;;1.10;73.00;;;;;;4957775;28;20039;-82
2022/12/17 16:59:45;;;;;;;27.15;13.73;;;1.00;73.10;;;;;;4972149;28;20035;-79
2022/12/17 17:02:14;;;;;;;19.63;11.82;;;0.90;73.40;;;;;;4973372;28;20031;-81
2022/12/17 17:04:40;;;;;;;17.30;9.27;;;0.90;73.50;;;;;;4966294;28;20031;-79
2022/12/17 17:07:06;;;;;;;20.92;10.65;;;0.90;73.60;;;;;;4957912;28;20032;-76
2022/12/17 17:09:32;;;;;;;18.75;11.38;;;1.00;73.80;;;;;;4957825;28;20030;-80
2022/12/17 17:11:58;;;;;;;19.75;11.25;;;1.10;73.80;;;;;;4970150;28;20077;-78
2022/12/17 17:14:24;;;;;;;18.40;11.88;;;1.20;73.50;;;;;;4983795;28;20475;-77
2022/12/17 17:16:51;;;;;;;19.80;12.27;;;1.20;73.20;;;;;;4959343;28;20031;-80
2022/12/17 17:19:17;;;;;;;23.40;12.52;;;1.20;73.20;;;;;;4960359;28;20097;-79
2022/12/17 17:21:51;;;;;;;20.73;11.27;;;1.30;73.10;;;;;;4946062;29;20122;-79
2022/12/17 17:24:19;;;;;;;31.00;16.50;;;1.20;72.90;;;;;;4973048;28;20402;-84
2022/12/17 17:26:45;;;;;;;16.60;9.98;;;1.20;73.20;;;;;;4962932;28;20055;-83
2022/12/17 17:29:11;;;;;;;21.70;11.52;;;1.20;73.10;;;;;;4966501;28;20517;-84
2022/12/17 17:31:57;;;;;;;18.42;11.25;;;1.10;72.90;;;;;;4959331;28;20391;-84
2022/12/17 17:34:22;;;;;;;28.60;13.65;;;1.00;73.20;;;;;;4955889;29;20094;-86
2022/12/17 17:36:48;;;;;;;24.23;14.65;;;0.90;73.40;;;;;;4957689;28;20574;-85
2022/12/17 17:39:13;;;;;;;16.50;11.35;;;0.90;73.70;;;;;;4959180;29;20035;-84
2022/12/17 17:41:39;;;;;;;22.08;10.45;;;0.90;73.50;;;;;;4957208;28;20027;-82
2022/12/17 17:44:07;;;;;;;11.38;6.68;;;0.80;73.20;;;;;;4960742;28;20038;-85
2022/12/17 17:46:34;;;;;;;18.38;13.38;;;0.80;73.10;;;;;;4960726;28;20032;-81
2022/12/17 17:49:04;;;;;;;17.73;9.35;;;0.80;73.30;;;;;;4959355;28;20123;-87
2022/12/17 17:51:32;;;;;;;16.30;9.23;;;0.80;73.30;;;;;;4941680;29;20035;-85
2022/12/17 17:54:00;;;;;;;13.75;8.18;;;0.90;73.20;;;;;;4942413;29;20031;-86
2022/12/17 17:56:30;;;;;;;21.08;11.48;;;0.90;73.10;;;;;;4958849;28;20039;-82
2022/12/17 17:59:01;;;;;;;12.90;9.13;;;0.90;73.00;;;;;;4959614;28;20042;-87
2022/12/17 18:01:31;;;;;;;14.98;9.18;;;0.80;73.10;;;;;;4978464;28;20042;-86
2022/12/17 18:04:03;;;;;;;18.90;10.15;;;0.80;73.00;;;;;;4955812;29;20121;-86
2022/12/17 18:06:29;;;;;;;11.98;8.73;;;0.90;72.90;;;;;;4945225;28;20035;-83
2022/12/17 18:08:56;;;;;;;17.30;11.20;;;0.80;73.00;;;;;;4967910;28;20021;-87
2022/12/17 18:11:23;;;;;;;8.88;6.47;;;0.80;73.10;;;;;;4978593;28;20485;-81
2022/12/17 18:13:55;;;;;;;18.85;11.02;;;0.80;72.90;;;;;;4976901;28;20031;-85
2022/12/17 18:16:20;;;;;;;10.27;6.90;;;0.70;73.10;;;;;;4955024;29;20035;-84
2022/12/17 18:18:46;;;;;;;21.33;12.07;;;0.80;73.40;;;;;;4940317;29;20499;-84
2022/12/17 18:21:15;;;;;;;17.45;8.68;;;0.70;73.10;;;;;;4940373;29;20483;-85
2022/12/17 18:23:41;;;;;;;21.50;13.07;;;0.80;73.40;;;;;;4970763;28;20173;-84
2022/12/17 18:26:19;;;;;;;12.52;8.45;;;0.80;73.10;;;;;;4962767;28;20062;-85
2022/12/17 18:29:12;;;;;;;13.57;9.60;;;0.80;73.00;;;;;;4979866;28;20019;-83
2022/12/17 18:31:38;;;;;;;16.05;8.88;;;0.90;72.90;;;;;;4970862;28;20218;-84
2022/12/17 18:34:04;;;;;;;17.45;9.35;;;0.80;72.50;;;;;;4943787;29;20067;-84
2022/12/17 18:36:36;;;;;;;17.52;11.27;;;0.80;72.60;;;;;;4960457;28;20032;-83
2022/12/17 18:39:06;;;;;;;22.02;11.20;;;0.80;72.40;;;;;;4960578;28;20106;-84
2022/12/17 18:44:18;;;;;;;8.20;6.85;;;0.90;72.30;;;;;;4960546;28;20061;-84
2022/12/17 18:46:44;;;;;;;16.38;8.88;;;0.80;72.40;;;;;;4960989;28;20105;-86
2022/12/17 18:49:12;;;;;;;11.00;6.50;;;0.90;72.40;;;;;;4960485;28;20059;-83
2022/12/17 18:51:39;;;;;;;14.80;10.48;;;0.80;72.40;;;;;;4960840;28;20024;-85
2022/12/17 18:54:07;;;;;;;18.20;11.60;;;0.80;72.80;;;;;;4960723;28;20035;-83
2022/12/17 18:56:34;;;;;;;23.98;13.52;;;0.90;72.80;;;;;;4960109;29;20078;-85
2022/12/17 18:59:00;;;;;;;11.23;7.93;;;0.90;72.50;;;;;;4962486;28;20030;-84
2022/12/17 19:01:33;;;;;;;17.52;10.80;;;0.90;72.40;;;;;;4979561;28;20557;-83
2022/12/17 19:04:04;;;;;;;13.68;9.43;;;1.00;72.40;;;;;;4957612;29;20035;-80
2022/12/17 19:06:32;;;;;;;26.35;12.98;;;0.80;72.50;;;;;;4959913;29;20019;-83
2022/12/17 19:08:58;;;;;;;17.48;9.55;;;0.90;72.70;;;;;;4960152;28;20019;-82
2022/12/17 19:11:24;;;;;;;12.73;9.32;;;0.80;72.80;;;;;;4980792;28;20050;-80
2022/12/17 19:13:50;;;;;;;23.58;15.32;;;0.80;73.00;;;;;;4988601;28;20034;-80
2022/12/17 19:16:18;;;;;;;24.35;12.18;;;0.80;73.10;;;;;;4959781;28;20031;-81
2022/12/17 19:18:49;;;;;;;20.60;12.10;;;0.70;73.10;;;;;;4962229;28;20062;-80
2022/12/17 19:21:15;;;;;;;19.08;10.32;;;0.70;73.40;;;;;;4959964;29;20082;-82
2022/12/17 19:23:41;;;;;;;14.43;9.60;;;0.70;73.50;;;;;;4969796;28;20035;-83
2022/12/17 19:26:16;;;;;;;13.13;8.02;;;0.70;73.70;;;;;;4968754;28;20023;-83
2022/12/17 19:28:45;;;;;;;12.45;9.85;;;0.70;73.50;;;;;;4947527;28;20058;-81
2022/12/17 19:31:31;;;;;;;;;;;;;;;;;;;;;
2022/12/17 19:34:00;;;;;;;19.13;8.80;;;0.70;73.80;;;;;;4959651;29;20019;-82
2022/12/17 19:36:28;;;;;;;24.33;12.68;;;0.50;74.10;;;;;;4958758;28;20031;-80
2022/12/17 19:38:55;;;;;;;21.25;11.20;;;0.60;74.30;;;;;;4958330;29;20031;-81
2022/12/17 19:41:22;;;;;;;19.67;10.88;;;0.60;74.30;;;;;;4958980;28;20031;-81
2022/12/17 19:43:53;;;;;;;11.43;7.70;;;0.60;74.20;;;;;;4960863;28;20497;-81
2022/12/17 19:46:19;;;;;;;24.80;13.43;;;0.70;74.00;;;;;;4970277;28;20031;-82
2022/12/17 19:48:52;;;;;;;22.35;14.23;;;0.50;74.10;;;;;;4942101;29;20030;-83
2022/12/17 19:51:21;;;;;;;22.58;14.77;;;0.50;74.20;;;;;;4959279;28;20127;-83
2022/12/17 19:53:47;;;;;;;20.75;11.48;;;0.40;74.50;;;;;;4959259;29;20391;-83
2022/12/17 19:56:17;;;;;;;18.05;11.00;;;0.40;74.60;;;;;;4960282;28;20519;-80
2022/12/17 19:58:45;;;;;;;31.23;14.82;;;0.40;74.60;;;;;;4946988;28;20018;-85
2022/12/17 20:01:16;;;;;;;17.20;9.25;;;0.30;74.80;;;;;;4979643;28;20043;-81
2022/12/17 20:03:44;;;;;;;15.52;8.23;;;0.30;74.90;;;;;;4956967;28;20046;-77
2022/12/17 20:06:12;;;;;;;14.23;8.35;;;0.30;74.90;;;;;;4959172;29;20055;-82
2022/12/17 20:08:37;;;;;;;36.05;17.92;;;0.40;74.90;;;;;;4959017;28;20038;-81
2022/12/17 20:14:00;;;;;;;17.50;8.15;;;0.30;74.80;;;;;;4988883;28;20037;-79
2022/12/17 20:16:28;;;;;;;13.77;9.18;;;0.30;74.90;;;;;;4964677;28;20058;-81
2022/12/17 20:18:54;;;;;;;20.13;12.60;;;0.30;74.80;;;;;;4955346;28;20035;-79
2022/12/17 20:21:20;;;;;;;27.17;14.25;;;0.30;74.80;;;;;;4965071;28;20035;-85
2022/12/17 20:23:47;;;;;;;19.40;11.30;;;0.30;74.90;;;;;;4974943;28;20406;-85
2022/12/17 20:26:13;;;;;;;11.77;8.52;;;0.30;74.80;;;;;;4958260;28;20054;-86
2022/12/17 20:28:42;;;;;;;16.77;10.35;;;0.30;74.80;;;;;;4972755;28;20058;-84
2022/12/17 20:31:08;;;;;;;12.52;8.07;;;0.30;74.80;;;;;;4976282;28;20110;-85
2022/12/17 20:33:34;;;;;;;19.20;9.63;;;0.30;74.80;;;;;;4976432;28;20105;-85
2022/12/17 20:36:09;;;;;;;19.83;11.77;;;0.30;74.80;;;;;;4976431;28;20537;-85
2022/12/17 20:38:36;;;;;;;14.43;10.20;;;0.30;74.90;;;;;;4953069;28;20035;-86
2022/12/17 20:41:08;;;;;;;19.02;9.85;;;0.20;74.80;;;;;;4977076;28;20098;-85
2022/12/17 20:43:33;;;;;;;14.25;10.18;;;0.30;74.70;;;;;;4949784;28;20118;-83
2022/12/17 20:46:00;;;;;;;17.77;11.98;;;0.20;74.60;;;;;;4975061;28;20046;-83
2022/12/17 20:48:26;;;;;;;21.08;11.63;;;0.30;74.80;;;;;;4956903;28;20031;-85
2022/12/17 20:50:51;;;;;;;16.88;10.95;;;0.30;74.50;;;;;;4959610;28;20031;-84
2022/12/17 20:53:18;;;;;;;16.55;8.93;;;0.20;74.50;;;;;;4975067;28;20031;-85
2022/12/17 20:55:43;;;;;;;21.15;10.77;;;0.20;74.50;;;;;;4976655;28;20503;-85
2022/12/17 20:58:09;;;;;;;11.48;8.15;;;0.30;74.60;;;;;;4970876;28;20219;-85
2022/12/17 21:00:35;;;;;;;11.52;7.95;;;0.20;74.30;;;;;;4959178;28;20030;-84
2022/12/17 21:03:01;;;;;;;15.07;9.05;;;0.10;74.80;;;;;;4959133;28;20031;-84
2022/12/17 21:05:26;;;;;;;10.73;7.88;;;0.10;75.00;;;;;;4959162;28;20019;-85
2022/12/17 21:07:52;;;;;;;10.18;6.93;;;0.00;75.10;;;;;;4975770;28;20030;-84
2022/12/17 21:10:18;;;;;;;17.75;8.13;;;0.00;75.20;;;;;;4970774;28;20020;-85
2022/12/17 21:15:28;;;;;;;19.88;10.60;;;0.00;75.40;;;;;;4970812;28;20033;-86
2022/12/17 21:17:54;;;;;;;6.70;5.88;;;0.00;75.90;;;;;;4976092;28;20030;-85
2022/12/17 21:20:20;;;;;;;13.13;7.55;;;0.00;75.90;;;;;;4959220;28;20050;-85
2022/12/17 21:22:46;;;;;;;10.32;7.82;;;0.00;76.00;;;;;;4955930;28;20066;-86
2022/12/17 21:25:29;;;;;;;14.50;10.25;;;0.00;76.00;;;;;;4977402;28;20475;-83
2022/12/17 21:27:55;;;;;;;14.38;9.05;;;0.00;76.00;;;;;;4955291;28;20031;-85
2022/12/17 21:30:20;;;;;;;15.82;7.55;;;0.00;76.10;;;;;;4975920;28;20077;-85
2022/12/17 21:32:46;;;;;;;13.63;6.60;;;0.00;76.20;;;;;;4976261;28;20039;-86
2022/12/17 21:35:12;;;;;;;9.43;7.93;;;-0.10;76.50;;;;;;4975259;28;20030;-85
2022/12/17 21:37:37;;;;;;;11.13;7.35;;;-0.10;76.60;;;;;;4960141;28;20090;-84
2022/12/17 21:40:03;;;;;;;14.52;8.13;;;-0.10;76.60;;;;;;4958772;28;20027;-84
2022/12/17 21:45:16;;;;;;;12.45;7.82;;;-0.10;76.50;;;;;;4969827;28;20043;-84
2022/12/17 21:47:41;;;;;;;20.92;9.57;;;-0.10;76.70;;;;;;4975970;28;20430;-84
2022/12/17 21:50:07;;;;;;;11.20;6.43;;;-0.10;76.60;;;;;;4969253;28;20035;-85
2022/12/17 21:52:33;;;;;;;12.85;8.32;;;-0.10;76.40;;;;;;4958220;28;20035;-84
2022/12/17 21:54:58;;;;;;;10.13;6.68;;;-0.10;76.80;;;;;;4976904;28;20681;-85
2022/12/17 21:57:24;;;;;;;13.93;9.18;;;-0.10;76.80;;;;;;4957443;28;20380;-85
2022/12/17 21:59:50;;;;;;;10.55;5.60;;;-0.20;77.00;;;;;;4980982;28;20577;-85
2022/12/17 22:02:15;;;;;;;9.45;7.35;;;-0.20;77.00;;;;;;4959947;28;20402;-85
2022/12/17 22:04:41;;;;;;;30.75;12.43;;;-0.20;77.20;;;;;;4952094;28;20508;-85
2022/12/17 22:07:07;;;;;;;19.90;10.85;;;-0.20;77.20;;;;;;4985926;28;20045;-84
2022/12/17 22:09:32;;;;;;;13.40;6.30;;;-0.20;76.90;;;;;;4978370;28;20027;-84
2022/12/17 22:14:45;;;;;;;16.00;9.63;;;-0.30;77.30;;;;;;4970566;28;20034;-84
2022/12/17 22:17:11;;;;;;;22.08;10.73;;;-0.30;77.80;;;;;;4982209;28;20062;-84
2022/12/17 22:19:36;;;;;;;16.17;8.93;;;-0.30;77.80;;;;;;4970639;28;20023;-85
2022/12/17 22:22:17;;;;;;;12.85;10.43;;;-0.40;77.90;;;;;;4960586;28;20067;-84
2022/12/17 22:24:43;;;;;;;17.40;8.88;;;-0.40;78.20;;;;;;4979041;28;20561;-84
2022/12/17 22:27:08;;;;;;;26.42;11.93;;;-0.40;78.30;;;;;;4961129;28;20073;-85
